Shepshed, United Kingdom
Current Conditions -  °F | °C
As of 2:20 PM on Tuesday 21 Oct 2014 (Local Time) from EGNX Reporting Station
Broken Clouds Broken Clouds  
Wind Chill: 52°   Ceiling: 3700
Heat Index: 52°   Visibility: 6mi
Dew Point: 41°   Wind: 24mph
Humidity: 67%   Direction: 280°W
Pressure: 29.68"   Gusts: 36mph
Location:  52.77°N, 1.29°W
Report Text: EGNX 211320Z 28021G31KT 9999 SCT030 BKN037 11/05 Q1005
Loading
Personal Weather Stations






























Interactive Weather Map
Tropical Storm Tracking
New forecast layout! Learn more

10-Day Weather Forecast

Advertisements
Track Severe Weather on mobile